createdAt,value
2019-05-06T00:00:59.132Z,14.89
2019-05-06T00:15:54.903Z,15.01
2019-05-06T00:30:58.553Z,15.12
2019-05-06T01:15:51.287Z,14.87
2019-05-06T01:45:53.522Z,14.19
2019-05-06T02:30:54.754Z,13.92
2019-05-06T02:45:57.558Z,13.89
2019-05-06T03:00:54.709Z,13.81
2019-05-06T03:30:57.121Z,13.72
2019-05-06T03:45:59.560Z,13.94
2019-05-06T04:00:53.181Z,14.10
2019-05-06T04:30:49.322Z,14.71
2019-05-06T04:45:48.693Z,15.14
2019-05-06T05:00:52.805Z,17.94
2019-05-06T05:15:54.540Z,17.14
2019-05-06T05:30:52.996Z,16.50
2019-05-06T05:45:52.316Z,16.12
2019-05-06T06:00:55.416Z,15.88
2019-05-06T07:00:54.505Z,17.38
2019-05-06T07:15:52.040Z,17.95
2019-05-06T07:30:52.101Z,18.72
2019-05-06T08:00:52.457Z,24.26
2019-05-06T08:15:53.091Z,22.91
2019-05-06T08:30:49.686Z,20.06
2019-05-06T08:45:53.240Z,18.40
2019-05-06T09:00:57.782Z,17.91
2019-05-06T09:15:58.496Z,17.49
2019-05-06T09:30:52.524Z,17.06
2019-05-06T09:45:49.414Z,17.97
2019-05-06T10:00:53.954Z,18.01
2019-05-06T10:15:49.237Z,19.64
2019-05-06T10:30:49.344Z,20.80
2019-05-06T10:45:52.626Z,21.51
2019-05-06T11:00:52.918Z,20.40
2019-05-06T11:15:49.397Z,19.45
2019-05-06T11:30:52.991Z,18.06
2019-05-06T11:45:52.006Z,16.97
2019-05-06T12:00:52.631Z,15.99
2019-05-06T12:15:55.685Z,14.89
2019-05-06T12:30:52.259Z,14.69
2019-05-06T13:00:49.754Z,14.98
2019-05-06T13:15:52.596Z,15.26
2019-05-06T13:30:50.312Z,15.72
2019-05-06T13:45:57.388Z,16.30
2019-05-06T14:00:51.894Z,16.53
2019-05-06T14:15:50.054Z,16.42
2019-05-06T14:30:56.848Z,16.77
2019-05-06T14:45:49.993Z,17.02
2019-05-06T15:00:53.213Z,17.00
2019-05-06T15:15:52.095Z,16.51
2019-05-06T15:30:52.897Z,15.79
2019-05-06T15:45:57.820Z,14.78
2019-05-06T16:00:49.946Z,13.97
2019-05-06T16:15:55.693Z,13.42
2019-05-06T16:30:53.187Z,12.67
2019-05-06T17:00:52.486Z,11.23
2019-05-06T17:15:52.779Z,11.11
2019-05-06T17:30:57.542Z,10.93
2019-05-06T17:46:02.873Z,10.79
2019-05-06T18:15:49.148Z,10.81
2019-05-06T18:30:52.150Z,10.85
2019-05-06T18:45:52.009Z,10.88
2019-05-06T19:16:02.093Z,10.71
2019-05-06T19:45:53.555Z,10.68
2019-05-06T20:15:52.816Z,10.75
2019-05-06T20:30:52.859Z,10.48
2019-05-06T20:45:51.995Z,10.26
2019-05-06T22:45:53.275Z,8.88
2019-05-06T23:15:52.381Z,8.91
